MMZC/ZCL METAR and TAF weather

Enter ICAO airport designator
Station Type Date Time Source
MMZC METAR 2022/01/18 02:45 UTC NOAA

MMZC 180245Z 16009KT 10SM BKN100 15/01 A3023 RMK 8/070


Station Type Date Time Source
MMZC Decoded METAR 2022/01/18 02:45 UTC NOAA

Zacatecas Airport, Mexico (MMZC) 22-54N 102-41W
Jan 17, 2022 - 09:45 PM EST / 2022.01.18 0245 UTC
Wind: from the SSE (160 degrees) at 10 MPH (9 KT):0
Visibility: 10 mile(s):0
Sky conditions: mostly cloudy
Temperature: 59 F (15 C)
Dew Point: 33 F (1 C)
Relative Humidity: 38%
Pressure (altimeter): 30.23 in. Hg (1023 hPa)
ob: MMZC 180245Z 16009KT 10SM BKN100 15/01 A3023 RMK 8/070
cycle: 3

Station Type Date Time Source
MMZC TAF 2022/01/18 06:57 UTC NOAA

TAF MMZC 180256Z 1806/1912 27005KT P6SM SCT030 SCT100 TX20/1821Z TN05/1812Z
FM181800 23008KT P6SM BKN030 BKN250
FM190600 24005KT P6SM SCT030 SCT250

Example: see airport list